Portada
METAR-TAF:

METAR-TAF

Aeropuertos :

Pella Municipal Airport

Pella, Iowa, Estados Unidos

latitud: 41-24N, longitud: 092-56W, altitud: 270 m

Observación

El informe se hizo hace 17 minutos, a las 06:55 UTC
Viento calma
Temperatura 14°C
Humedad 88%
Presión 1025 hPa
Visibilidad: 16.1 km
Nubes dispersas a una altura de 11000 ft

METAR: KPEA 310655Z AUTO 00000KT 10SM SCT110 14/12 A3027 RMK AO2 T01440118

Hora: 02:12 (07:12 UTC)


TAF: falta

Observaciones y pronósticos meteorológicos de más de 4000 aeropuertos (mensajes METAR y TAF).

Los puntos amarillos y rojos representan las estaciones disponibles.

Ponga el ratón en el punto deseado para ver el nombre de la estación.

Haga clic para ver las observaciones y los pronósticos meteorológicos.

Para cambiar el mapa : haga clic en los botones verdes con una cruz de color negro para hacer un zoom, en el botón verde con un guión para alejar o en las flechas verdes para mapas adyacentes.


METAR-TAF: